createdAt,value
2023-12-21T00:00:14.260Z,3.90
2023-12-21T00:02:40.961Z,3.90
2023-12-21T00:05:08.240Z,3.90
2023-12-21T00:07:35.322Z,3.90
2023-12-21T00:10:02.150Z,3.90
2023-12-21T00:12:28.911Z,4.00
2023-12-21T00:14:55.814Z,4.00
2023-12-21T00:17:22.526Z,4.00
2023-12-21T00:19:49.294Z,4.00
2023-12-21T00:22:16.157Z,4.00
2023-12-21T00:24:42.888Z,4.10
2023-12-21T00:27:09.560Z,4.00
2023-12-21T00:29:36.275Z,4.10
2023-12-21T00:32:03.871Z,4.10
2023-12-21T00:34:30.602Z,4.10
2023-12-21T00:36:57.350Z,4.00
2023-12-21T00:39:26.239Z,4.10
2023-12-21T00:41:54.980Z,4.10
2023-12-21T00:44:21.660Z,4.10
2023-12-21T00:46:48.443Z,4.00
2023-12-21T00:49:15.161Z,4.00
2023-12-21T00:51:41.907Z,4.00
2023-12-21T00:54:08.597Z,4.00
2023-12-21T00:56:35.357Z,4.00
2023-12-21T00:59:02.070Z,4.10
2023-12-21T01:01:29.090Z,4.00
2023-12-21T01:03:55.902Z,4.00
2023-12-21T01:06:22.653Z,4.00
2023-12-21T01:08:49.437Z,4.10
2023-12-21T01:11:16.169Z,4.10
2023-12-21T01:13:42.966Z,4.10
2023-12-21T01:16:10.916Z,4.10
2023-12-21T01:18:38.635Z,4.20
2023-12-21T01:21:05.789Z,4.20
2023-12-21T01:23:32.672Z,4.20
2023-12-21T01:25:59.490Z,4.20
2023-12-21T01:28:26.225Z,4.20
2023-12-21T01:30:53.407Z,4.20
2023-12-21T01:33:20.352Z,4.30
2023-12-21T01:35:47.160Z,4.30
2023-12-21T01:38:13.828Z,4.20
2023-12-21T01:40:40.733Z,4.30
2023-12-21T01:43:07.573Z,4.20
2023-12-21T01:45:34.306Z,4.30
2023-12-21T01:48:03.181Z,4.40
2023-12-21T01:50:30.019Z,4.40
2023-12-21T01:52:59.386Z,4.50
2023-12-21T01:55:26.783Z,4.40
2023-12-21T01:57:53.494Z,4.40
2023-12-21T02:00:20.404Z,4.40
2023-12-21T02:02:47.528Z,4.40
2023-12-21T02:05:14.487Z,4.40
2023-12-21T02:07:41.571Z,4.30
2023-12-21T02:10:08.663Z,4.30
2023-12-21T02:12:35.403Z,4.40
2023-12-21T02:15:02.224Z,4.40
2023-12-21T02:17:30.581Z,4.50
2023-12-21T02:19:58.166Z,4.50
2023-12-21T02:22:27.642Z,4.40
2023-12-21T02:24:54.752Z,4.50
2023-12-21T02:27:21.756Z,4.50
2023-12-21T02:29:48.592Z,4.50
2023-12-21T02:32:15.323Z,4.50
2023-12-21T02:34:42.207Z,4.40
2023-12-21T02:37:08.945Z,4.40
2023-12-21T02:39:35.696Z,4.30
2023-12-21T02:42:02.437Z,4.20
2023-12-21T02:44:29.143Z,4.20
2023-12-21T02:46:55.931Z,4.20
2023-12-21T02:49:22.739Z,4.10
2023-12-21T02:51:49.584Z,4.10
2023-12-21T02:54:16.322Z,4.10
2023-12-21T02:56:43.127Z,4.10
2023-12-21T02:59:09.838Z,4.00
2023-12-21T03:01:42.459Z,4.00
2023-12-21T03:04:13.441Z,4.00
2023-12-21T03:06:40.623Z,4.10
2023-12-21T03:09:07.335Z,4.10
2023-12-21T03:11:34.004Z,4.20
2023-12-21T03:14:00.800Z,4.20
2023-12-21T03:16:27.822Z,4.20
2023-12-21T03:18:54.680Z,4.20
2023-12-21T03:21:21.447Z,4.30
2023-12-21T03:23:48.199Z,4.20
2023-12-21T03:26:14.959Z,4.20
2023-12-21T03:28:46.478Z,4.30
2023-12-21T03:31:16.543Z,4.20
2023-12-21T03:33:43.520Z,4.20
2023-12-21T03:36:13.923Z,4.20
2023-12-21T03:38:40.717Z,4.20
2023-12-21T03:41:07.488Z,4.20
2023-12-21T03:43:34.274Z,4.20
2023-12-21T03:46:01.051Z,4.20
2023-12-21T03:48:27.841Z,4.20
2023-12-21T03:50:54.799Z,4.30
2023-12-21T03:53:21.476Z,4.20
2023-12-21T03:55:48.164Z,4.10
2023-12-21T03:58:14.992Z,4.10
2023-12-21T04:00:41.819Z,4.20
2023-12-21T04:03:08.581Z,4.20
2023-12-21T04:05:35.269Z,4.20
2023-12-21T04:08:01.976Z,4.20
2023-12-21T04:10:28.810Z,4.20
2023-12-21T04:12:55.546Z,4.30
2023-12-21T04:15:22.230Z,4.30
2023-12-21T04:17:49.070Z,4.30
2023-12-21T04:20:16.003Z,4.30
2023-12-21T04:22:42.873Z,4.30
2023-12-21T04:25:09.946Z,4.40
2023-12-21T04:27:36.665Z,4.40
2023-12-21T04:30:04.450Z,4.50
2023-12-21T04:32:31.554Z,4.50
2023-12-21T04:34:58.928Z,4.60
2023-12-21T04:37:25.746Z,4.50
2023-12-21T04:39:52.592Z,4.50
2023-12-21T04:42:19.441Z,4.60
2023-12-21T04:44:46.120Z,4.60
2023-12-21T04:47:22.703Z,4.60
2023-12-21T04:49:51.495Z,4.70
2023-12-21T04:52:18.405Z,4.70
2023-12-21T04:54:45.703Z,4.80
2023-12-21T04:57:12.685Z,4.90
2023-12-21T04:59:43.175Z,5.00
2023-12-21T05:02:09.874Z,4.90
2023-12-21T05:04:36.709Z,4.90
2023-12-21T05:07:09.850Z,5.00
2023-12-21T05:09:36.846Z,5.00
2023-12-21T05:12:04.778Z,5.10
2023-12-21T05:14:31.703Z,5.10
2023-12-21T05:16:59.669Z,5.10
2023-12-21T05:19:26.666Z,5.20
2023-12-21T05:21:53.946Z,5.10
2023-12-21T05:24:20.643Z,5.10
2023-12-21T05:26:47.331Z,5.10
2023-12-21T05:29:14.018Z,5.10
2023-12-21T05:31:43.246Z,5.20
2023-12-21T05:34:10.604Z,5.10
2023-12-21T05:36:37.541Z,5.10
2023-12-21T05:39:04.956Z,5.00
2023-12-21T05:41:44.120Z,5.20
2023-12-21T05:44:10.808Z,5.20
2023-12-21T05:46:37.604Z,5.20
2023-12-21T05:49:04.488Z,5.20
2023-12-21T05:51:32.518Z,5.20
2023-12-21T05:53:59.176Z,5.20
2023-12-21T05:56:25.960Z,5.20
2023-12-21T05:58:52.736Z,5.20
2023-12-21T06:01:19.624Z,5.20
2023-12-21T06:03:46.376Z,5.20
2023-12-21T06:06:14.441Z,5.20
2023-12-21T06:08:41.426Z,5.20
2023-12-21T06:11:08.132Z,5.30
2023-12-21T06:13:34.917Z,5.40
2023-12-21T06:16:01.745Z,5.30
2023-12-21T06:18:28.740Z,5.30
2023-12-21T06:20:55.509Z,5.40
2023-12-21T06:23:22.191Z,5.40
2023-12-21T06:25:49.045Z,5.40
2023-12-21T06:28:15.821Z,5.50
2023-12-21T06:30:42.524Z,5.50
2023-12-21T06:33:09.559Z,5.50
2023-12-21T06:35:37.355Z,5.50
2023-12-21T06:38:04.221Z,5.60
2023-12-21T06:40:31.255Z,5.60
2023-12-21T06:42:58.036Z,5.60
2023-12-21T06:45:24.939Z,5.70
2023-12-21T06:47:51.646Z,5.70
2023-12-21T06:50:18.428Z,5.70
2023-12-21T06:52:45.470Z,5.60
2023-12-21T06:55:12.466Z,5.60
2023-12-21T06:57:39.205Z,5.70
2023-12-21T07:00:07.892Z,5.70
2023-12-21T07:02:34.664Z,5.70
2023-12-21T07:05:01.320Z,5.80
2023-12-21T07:07:28.124Z,5.80
2023-12-21T07:09:54.879Z,5.80
2023-12-21T07:12:21.695Z,5.90
2023-12-21T07:14:48.500Z,5.80
2023-12-21T07:17:15.198Z,5.90
2023-12-21T07:19:42.676Z,5.90
2023-12-21T07:22:09.497Z,5.90
2023-12-21T07:24:36.230Z,6.00
2023-12-21T07:27:03.469Z,6.10
2023-12-21T07:29:30.254Z,6.00
2023-12-21T07:31:56.895Z,6.00
2023-12-21T07:34:23.807Z,6.00
2023-12-21T07:36:50.535Z,6.10
2023-12-21T07:39:17.225Z,6.00
2023-12-21T07:41:44.394Z,6.00
2023-12-21T07:44:11.239Z,6.10
2023-12-21T07:46:38.076Z,6.10
2023-12-21T07:49:05.079Z,6.10
2023-12-21T07:51:31.941Z,6.30
2023-12-21T07:53:58.644Z,6.30
2023-12-21T07:56:25.419Z,6.30
2023-12-21T07:58:52.331Z,6.30
2023-12-21T08:01:19.190Z,6.30
2023-12-21T08:03:46.112Z,6.40
2023-12-21T08:06:22.635Z,6.50
2023-12-21T08:08:56.995Z,6.50
2023-12-21T08:11:26.153Z,6.50
2023-12-21T08:13:53.922Z,6.50
2023-12-21T08:16:20.837Z,6.50
2023-12-21T08:18:47.701Z,6.60
2023-12-21T08:21:14.452Z,6.60
2023-12-21T08:23:41.743Z,6.60
2023-12-21T08:26:09.733Z,6.70
2023-12-21T08:28:36.526Z,6.70
2023-12-21T08:31:04.903Z,6.60
2023-12-21T08:33:31.865Z,6.60
2023-12-21T08:35:59.653Z,6.60
2023-12-21T08:38:26.693Z,6.70
2023-12-21T08:40:53.564Z,6.70
2023-12-21T08:43:20.360Z,6.70
2023-12-21T08:45:47.105Z,6.70
2023-12-21T08:48:13.827Z,6.80
2023-12-21T08:50:40.888Z,6.80
2023-12-21T08:53:07.656Z,6.80
2023-12-21T08:55:34.414Z,6.80
2023-12-21T08:58:01.212Z,6.80
2023-12-21T09:00:28.064Z,6.90
2023-12-21T09:02:56.936Z,6.90
2023-12-21T09:05:25.022Z,6.90
2023-12-21T09:07:51.990Z,6.90
2023-12-21T09:10:19.408Z,6.90
2023-12-21T09:12:46.532Z,6.90
2023-12-21T09:15:13.670Z,6.90
2023-12-21T09:17:41.920Z,6.90
2023-12-21T09:20:09.877Z,7.00
2023-12-21T09:22:38.308Z,7.10
2023-12-21T09:25:06.195Z,7.10
2023-12-21T09:27:33.968Z,7.20
2023-12-21T09:30:00.864Z,7.20
2023-12-21T09:32:27.581Z,7.30
2023-12-21T09:34:54.471Z,7.30
2023-12-21T09:37:21.257Z,7.30
2023-12-21T09:39:48.038Z,7.30
2023-12-21T09:42:16.426Z,7.40
2023-12-21T09:44:48.625Z,7.40
2023-12-21T09:47:19.665Z,7.40
2023-12-21T09:49:48.877Z,7.30
2023-12-21T09:52:19.206Z,7.40
2023-12-21T09:54:49.067Z,7.40
2023-12-21T09:57:16.386Z,7.50
2023-12-21T09:59:43.263Z,7.50
2023-12-21T10:02:13.577Z,7.60
2023-12-21T10:04:45.889Z,7.60
2023-12-21T10:07:13.852Z,7.60
2023-12-21T10:09:41.188Z,7.60
2023-12-21T10:12:10.702Z,7.60
2023-12-21T10:14:37.443Z,7.60
2023-12-21T10:17:10.887Z,7.60
2023-12-21T10:19:38.542Z,7.50
2023-12-21T10:22:05.359Z,7.60
2023-12-21T10:24:33.578Z,7.60
2023-12-21T10:27:00.276Z,7.50
2023-12-21T10:29:26.967Z,7.50
2023-12-21T10:31:53.669Z,7.50
2023-12-21T10:34:20.572Z,7.50
2023-12-21T10:36:47.341Z,7.60
2023-12-21T10:39:18.404Z,7.70
2023-12-21T10:41:45.835Z,7.70
2023-12-21T10:44:16.789Z,7.60
2023-12-21T10:46:44.040Z,7.70
2023-12-21T10:49:11.894Z,7.70
2023-12-21T10:51:41.730Z,7.60
2023-12-21T10:54:09.481Z,7.60
2023-12-21T10:56:42.860Z,7.60
2023-12-21T10:59:10.855Z,7.50
2023-12-21T11:01:38.598Z,7.50
2023-12-21T11:04:05.829Z,7.50
2023-12-21T11:06:34.985Z,7.60
2023-12-21T11:09:04.746Z,7.70
2023-12-21T11:11:32.366Z,7.70
2023-12-21T11:13:59.048Z,7.80
2023-12-21T11:16:36.331Z,7.80
2023-12-21T11:19:06.188Z,7.90
2023-12-21T11:21:34.437Z,7.90
2023-12-21T11:24:01.568Z,8.00
2023-12-21T11:26:29.185Z,7.90
2023-12-21T11:29:08.640Z,7.90
2023-12-21T11:31:40.476Z,8.00
2023-12-21T11:34:16.349Z,8.00
2023-12-21T11:36:43.545Z,8.20
2023-12-21T11:39:16.804Z,8.20
2023-12-21T11:41:59.844Z,8.10
2023-12-21T11:44:37.090Z,8.10
2023-12-21T11:47:07.945Z,8.10
2023-12-21T11:49:34.885Z,8.10
2023-12-21T11:52:01.751Z,8.20
2023-12-21T11:54:28.615Z,8.10
2023-12-21T11:57:09.628Z,8.10
2023-12-21T11:59:37.963Z,8.10
2023-12-21T12:02:08.185Z,7.90
2023-12-21T12:04:35.053Z,7.90
2023-12-21T12:07:04.752Z,7.80
2023-12-21T12:09:31.579Z,7.80
2023-12-21T12:11:58.971Z,7.90
2023-12-21T12:14:25.676Z,7.90
2023-12-21T12:16:52.585Z,7.90
2023-12-21T12:19:19.465Z,8.00
2023-12-21T12:21:46.255Z,8.00
2023-12-21T12:24:17.483Z,8.00
2023-12-21T12:26:44.250Z,8.10
2023-12-21T12:29:16.641Z,8.10
2023-12-21T12:31:44.957Z,8.20
2023-12-21T12:34:12.679Z,8.20
2023-12-21T12:36:39.649Z,8.20
2023-12-21T12:39:06.376Z,8.20
2023-12-21T12:41:33.611Z,8.20
2023-12-21T12:44:01.087Z,8.20
2023-12-21T12:46:29.608Z,8.10
2023-12-21T12:48:56.825Z,8.10
2023-12-21T12:51:23.823Z,8.10
2023-12-21T12:53:53.027Z,8.20
2023-12-21T12:56:19.974Z,8.20
2023-12-21T13:01:17.501Z,8.20
2023-12-21T13:03:44.351Z,8.20
2023-12-21T13:06:18.001Z,8.20
2023-12-21T13:08:45.473Z,8.30
2023-12-21T13:11:12.548Z,8.20
2023-12-21T13:13:39.510Z,8.20
2023-12-21T13:16:06.390Z,8.10
2023-12-21T13:18:34.891Z,8.10
2023-12-21T13:21:01.681Z,8.10
2023-12-21T13:23:28.385Z,8.20
2023-12-21T13:25:56.214Z,8.20
2023-12-21T13:28:23.520Z,8.20
2023-12-21T13:30:50.727Z,8.10
2023-12-21T13:33:19.176Z,8.20
2023-12-21T13:35:46.171Z,8.10
2023-12-21T13:38:13.310Z,8.00
2023-12-21T13:40:40.168Z,8.00
2023-12-21T13:43:06.943Z,8.00
2023-12-21T13:45:34.309Z,8.00
2023-12-21T13:48:01.457Z,8.00
2023-12-21T13:50:28.225Z,8.00
2023-12-21T13:52:56.011Z,8.00
2023-12-21T13:55:22.898Z,8.10
2023-12-21T13:57:51.290Z,8.10
2023-12-21T14:00:18.419Z,8.20
2023-12-21T14:02:45.518Z,8.20
2023-12-21T14:05:13.339Z,8.20
2023-12-21T14:07:40.449Z,8.20
2023-12-21T14:10:08.965Z,8.20
2023-12-21T14:12:35.956Z,8.20
2023-12-21T14:15:03.872Z,8.30
2023-12-21T14:17:30.713Z,8.20
2023-12-21T14:19:57.589Z,8.20
2023-12-21T14:22:24.484Z,8.20
2023-12-21T14:24:51.215Z,8.30
2023-12-21T14:27:20.621Z,8.30
2023-12-21T14:29:47.400Z,8.30
2023-12-21T14:32:14.166Z,8.30
2023-12-21T14:34:40.928Z,8.20
2023-12-21T14:37:12.244Z,8.00
2023-12-21T14:39:39.255Z,7.90
2023-12-21T14:42:07.241Z,7.70
2023-12-21T14:44:33.936Z,7.60
2023-12-21T14:47:00.667Z,7.60
2023-12-21T14:49:27.546Z,7.50
2023-12-21T14:51:54.615Z,7.40
2023-12-21T14:54:21.318Z,7.20
2023-12-21T14:56:48.043Z,7.20
2023-12-21T14:59:14.821Z,7.30
2023-12-21T15:01:43.001Z,7.30
2023-12-21T15:04:10.214Z,7.30
2023-12-21T15:06:37.056Z,7.40
2023-12-21T15:09:04.190Z,7.30
2023-12-21T15:11:30.880Z,7.40
2023-12-21T15:13:59.265Z,7.40
2023-12-21T15:16:28.533Z,7.40
2023-12-21T15:18:55.637Z,7.40
2023-12-21T15:21:22.722Z,7.40
2023-12-21T15:23:49.433Z,7.50
2023-12-21T15:26:17.061Z,7.50
2023-12-21T15:28:43.960Z,7.50
2023-12-21T15:31:11.084Z,7.40
2023-12-21T15:33:37.879Z,7.40
2023-12-21T15:36:07.992Z,7.40
2023-12-21T15:38:35.075Z,7.50
2023-12-21T15:41:01.901Z,7.40
2023-12-21T15:43:28.685Z,7.40
2023-12-21T15:45:55.565Z,7.40
2023-12-21T15:48:22.369Z,7.30
2023-12-21T15:50:49.978Z,7.20
2023-12-21T15:53:16.697Z,7.30
2023-12-21T15:55:43.455Z,7.20
2023-12-21T15:58:10.294Z,7.20
2023-12-21T16:00:37.026Z,7.20
2023-12-21T16:03:03.993Z,7.30
2023-12-21T16:05:31.357Z,7.30
2023-12-21T16:07:58.082Z,7.20
2023-12-21T16:10:24.952Z,7.30
2023-12-21T16:12:52.094Z,7.30
2023-12-21T16:15:18.938Z,7.40
2023-12-21T16:17:45.734Z,7.30
2023-12-21T16:20:15.221Z,7.40
2023-12-21T16:22:42.104Z,7.40
2023-12-21T16:25:09.669Z,7.50
2023-12-21T16:27:36.730Z,7.60
2023-12-21T16:30:04.810Z,7.60
2023-12-21T16:32:32.576Z,7.50
2023-12-21T16:34:59.669Z,7.60
2023-12-21T16:37:27.013Z,7.60
2023-12-21T16:39:53.754Z,7.70
2023-12-21T16:42:21.326Z,7.70
2023-12-21T16:44:48.001Z,7.70
2023-12-21T16:47:14.753Z,7.60
2023-12-21T16:49:41.552Z,7.70
2023-12-21T16:52:09.322Z,7.80
2023-12-21T16:54:36.117Z,7.70
2023-12-21T16:57:04.509Z,7.80
2023-12-21T16:59:31.240Z,7.90
2023-12-21T17:01:58.286Z,7.80
2023-12-21T17:04:25.240Z,7.90
2023-12-21T17:06:52.022Z,7.90
2023-12-21T17:09:18.703Z,7.80
2023-12-21T17:11:45.501Z,7.80
2023-12-21T17:14:12.218Z,7.90
2023-12-21T17:16:41.919Z,8.00
2023-12-21T17:19:12.822Z,8.10
2023-12-21T17:21:39.710Z,8.00
2023-12-21T17:24:07.005Z,7.90
2023-12-21T17:26:33.825Z,8.00
2023-12-21T17:29:00.567Z,8.10
2023-12-21T17:31:27.653Z,8.10
2023-12-21T17:33:54.560Z,8.10
2023-12-21T17:36:22.130Z,8.10
2023-12-21T17:38:48.919Z,8.20
2023-12-21T17:41:15.636Z,8.20
2023-12-21T17:43:45.464Z,8.20
2023-12-21T17:46:15.135Z,8.20
2023-12-21T17:48:41.942Z,8.30
2023-12-21T17:51:08.949Z,8.20
2023-12-21T17:53:35.662Z,8.20
2023-12-21T17:56:02.401Z,8.20
2023-12-21T17:58:29.579Z,8.30
2023-12-21T18:00:56.384Z,8.20
2023-12-21T18:03:23.947Z,8.40
2023-12-21T18:05:55.694Z,8.40
2023-12-21T18:08:22.791Z,8.40
2023-12-21T18:10:49.893Z,8.50
2023-12-21T18:13:16.696Z,8.40
2023-12-21T18:15:43.416Z,8.50
2023-12-21T18:18:10.894Z,8.50
2023-12-21T18:20:37.720Z,8.60
2023-12-21T18:23:04.550Z,8.60
2023-12-21T18:25:31.327Z,8.50
2023-12-21T18:27:58.093Z,8.50
2023-12-21T18:30:25.269Z,8.60
2023-12-21T18:32:52.063Z,8.60
2023-12-21T18:35:18.853Z,8.40
2023-12-21T18:37:47.172Z,8.30
2023-12-21T18:40:14.628Z,8.30
2023-12-21T18:42:41.584Z,8.30
2023-12-21T18:45:08.549Z,8.30
2023-12-21T18:47:35.410Z,8.40
2023-12-21T18:50:02.577Z,8.40
2023-12-21T18:52:30.287Z,8.40
2023-12-21T18:54:57.015Z,8.40
2023-12-21T18:57:23.764Z,8.40
2023-12-21T18:59:50.444Z,8.40
2023-12-21T19:02:17.168Z,8.50
2023-12-21T19:04:44.390Z,8.50
2023-12-21T19:07:11.248Z,8.60
2023-12-21T19:09:39.826Z,8.50
2023-12-21T19:12:07.225Z,8.20
2023-12-21T19:14:34.661Z,8.00
2023-12-21T19:17:01.381Z,7.80
2023-12-21T19:19:28.299Z,7.80
2023-12-21T19:21:55.083Z,7.80
2023-12-21T19:24:21.780Z,7.80
2023-12-21T19:26:51.016Z,7.80
2023-12-21T19:29:18.789Z,7.80
2023-12-21T19:31:45.548Z,7.80
2023-12-21T19:34:12.335Z,7.70
2023-12-21T19:36:40.496Z,7.80
2023-12-21T19:39:08.126Z,8.00
2023-12-21T19:41:35.003Z,8.00
2023-12-21T19:44:01.712Z,8.00
2023-12-21T19:46:28.498Z,8.10
2023-12-21T19:48:55.201Z,8.10
2023-12-21T19:51:23.654Z,8.10
2023-12-21T19:53:50.528Z,8.00
2023-12-21T19:56:17.549Z,8.10
2023-12-21T19:58:48.421Z,8.00
2023-12-21T20:01:15.259Z,8.00
2023-12-21T20:03:42.012Z,8.10
2023-12-21T20:06:08.856Z,8.10
2023-12-21T20:08:35.597Z,8.00
2023-12-21T20:11:02.358Z,8.10
2023-12-21T20:13:30.385Z,8.20
2023-12-21T20:15:57.313Z,8.20
2023-12-21T20:18:24.587Z,8.20
2023-12-21T20:20:51.504Z,8.20
2023-12-21T20:23:18.322Z,8.10
2023-12-21T20:25:47.055Z,8.10
2023-12-21T20:28:14.310Z,8.10
2023-12-21T20:30:41.127Z,8.00
2023-12-21T20:33:10.743Z,8.00
2023-12-21T20:35:38.067Z,8.00
2023-12-21T20:38:07.159Z,8.00
2023-12-21T20:40:37.216Z,8.00
2023-12-21T20:43:07.812Z,8.10
2023-12-21T20:45:36.166Z,8.20
2023-12-21T20:48:03.837Z,8.20
2023-12-21T20:50:30.926Z,8.20
2023-12-21T20:52:57.867Z,8.30
2023-12-21T20:55:25.104Z,8.30
2023-12-21T20:57:51.913Z,8.30
2023-12-21T21:00:18.789Z,8.30
2023-12-21T21:02:45.904Z,8.40
2023-12-21T21:05:14.136Z,8.30
2023-12-21T21:07:41.719Z,8.40
2023-12-21T21:10:09.121Z,8.40
2023-12-21T21:12:36.025Z,8.30
2023-12-21T21:15:02.752Z,8.20
2023-12-21T21:17:29.738Z,8.10
2023-12-21T21:19:56.502Z,7.80
2023-12-21T21:22:23.338Z,6.50
2023-12-21T21:24:51.296Z,5.30
2023-12-21T21:27:18.091Z,5.10
2023-12-21T21:29:45.160Z,5.10
2023-12-21T21:32:11.909Z,5.00
2023-12-21T21:34:38.698Z,4.80
2023-12-21T21:37:06.044Z,4.80
2023-12-21T21:39:36.173Z,4.80
2023-12-21T21:42:03.159Z,4.90
2023-12-21T21:44:32.114Z,4.90
2023-12-21T21:46:59.030Z,4.90
2023-12-21T21:49:26.081Z,4.90
2023-12-21T21:51:52.922Z,5.00
2023-12-21T21:54:19.662Z,5.00
2023-12-21T21:56:46.371Z,5.10
2023-12-21T21:59:13.909Z,5.10
2023-12-21T22:01:44.250Z,5.20
2023-12-21T22:04:11.154Z,5.30
2023-12-21T22:06:37.936Z,5.50
2023-12-21T22:09:04.653Z,5.70
2023-12-21T22:11:31.399Z,5.80
2023-12-21T22:13:58.154Z,5.80
2023-12-21T22:16:24.911Z,5.90
2023-12-21T22:18:52.027Z,6.00
2023-12-21T22:21:19.082Z,6.00
2023-12-21T22:23:45.914Z,6.00
2023-12-21T22:26:22.405Z,6.10
2023-12-21T22:28:49.518Z,6.10
2023-12-21T22:31:16.864Z,6.10
2023-12-21T22:33:43.640Z,6.10
2023-12-21T22:36:10.615Z,6.10
2023-12-21T22:38:37.444Z,6.10
2023-12-21T22:41:05.197Z,6.10
2023-12-21T22:43:41.728Z,6.20
2023-12-21T22:46:10.021Z,6.10
2023-12-21T22:48:37.008Z,6.10
2023-12-21T22:51:04.081Z,6.10
2023-12-21T22:53:32.098Z,6.00
2023-12-21T22:55:59.056Z,6.00
2023-12-21T22:58:26.231Z,6.00
2023-12-21T23:00:53.247Z,6.00
2023-12-21T23:03:20.115Z,6.10
2023-12-21T23:05:46.987Z,6.10
2023-12-21T23:08:13.764Z,6.30
2023-12-21T23:10:44.210Z,6.30
2023-12-21T23:13:18.792Z,6.00
2023-12-21T23:15:46.052Z,4.80
2023-12-21T23:18:13.625Z,4.60
2023-12-21T23:20:40.551Z,4.60
2023-12-21T23:23:07.364Z,4.60
2023-12-21T23:25:34.463Z,4.60
2023-12-21T23:28:01.195Z,4.50
2023-12-21T23:30:27.969Z,4.50
2023-12-21T23:32:54.809Z,4.50
2023-12-21T23:35:23.714Z,4.50
2023-12-21T23:37:51.234Z,4.50
2023-12-21T23:40:18.496Z,4.50
2023-12-21T23:42:45.296Z,4.50
2023-12-21T23:45:12.101Z,4.30
2023-12-21T23:47:38.859Z,4.10
2023-12-21T23:50:06.232Z,3.80
2023-12-21T23:52:33.201Z,3.50
2023-12-21T23:55:00.131Z,3.40
2023-12-21T23:57:26.945Z,3.30
2023-12-21T23:59:54.009Z,3.30
